Airport View

Enter AWOS ICAO identifier for current METAR.

ex. KFNL

KCPC 210015Z AUTO 00000KT 10SM CLR 22/17 A3027 RMK AO2 T02180170

21 Sep 2019 00:25

Frequency: 118.375

Phone: 910-642-7508

Other Area AWOS: KEYF - KLBT - KCRE - KMAO

TAF KLBT 202320Z 2100/2124 00000KT P6SM SKC FM211800 16004KT P6SM SKC AMD NOT SKED